Time;durP1;ratioP1;P1;durP2;ratioP2;P2;SDS_P1;SDS_P2;PMS_P1;PMS_P2;Temp;Humidity;BMP_temperature;BMP_pressure;BME280_temperature;BME280_humidity;BME280_pressure;Samples;Min_cycle;Max_cycle;Signal;HPM_P1;HPM_P2
2022/09/26 00:00:43;;;;;;;;;3.00;0.00;;;;;17.16;49.82;100809.41;2079780;28;48532;-65
2022/09/26 00:01:44;;;;;;;;;2.67;1.67;;;;;17.16;49.59;100810.28;2079684;28;47360;-65
2022/09/26 00:02:44;;;;;;;;;2.67;2.33;;;;;17.16;49.41;100810.28;2071134;28;47375;-66
2022/09/26 00:03:47;;;;;;;;;1.33;1.33;;;;;17.16;49.96;100804.91;2071797;28;47544;-64
2022/09/26 00:04:48;;;;;;;;;0.25;0.25;;;;;17.16;49.46;100807.59;2079936;28;48047;-66
2022/09/26 00:05:48;;;;;;;;;0.00;0.00;;;;;17.15;49.70;100802.28;2074626;28;47465;-66
2022/09/26 00:06:51;;;;;;;;;0.00;0.00;;;;;17.15;49.66;100804.97;2075494;28;47883;-65
2022/09/26 00:07:51;;;;;;;;;1.00;1.00;;;;;17.14;49.85;100804.09;2080270;28;48137;-66
2022/09/26 00:08:53;;;;;;;;;2.33;1.67;;;;;17.13;49.89;100804.16;2079891;28;47846;-66
2022/09/26 00:09:54;;;;;;;;;0.00;0.00;;;;;17.13;49.69;100807.72;2080093;28;47988;-66
2022/09/26 00:10:57;;;;;;;;;0.25;0.25;;;;;17.13;49.79;100794.31;2071256;28;48004;-65
2022/09/26 00:11:57;;;;;;;;;2.00;1.00;;;;;17.14;49.91;100803.22;2065972;28;47746;-66
2022/09/26 00:12:58;;;;;;;;;1.67;0.33;;;;;17.14;50.06;100801.41;2080396;28;47930;-66
2022/09/26 00:14:02;;;;;;;;;3.33;1.00;;;;;17.14;49.93;100798.72;2080345;28;47895;-65
2022/09/26 00:15:02;;;;;;;;;1.25;1.25;;;;;17.14;49.92;100792.50;2071554;28;47173;-64
2022/09/26 00:16:04;;;;;;;;;1.50;1.50;;;;;17.12;49.77;100792.56;2062845;28;47687;-66
2022/09/26 00:17:04;;;;;;;;;1.00;1.00;;;;;17.11;50.13;100792.66;2068293;28;48091;-65
2022/09/26 00:18:05;;;;;;;;;1.00;1.00;;;;;17.10;49.78;100794.47;2072413;28;47360;-65
2022/09/26 00:19:06;;;;;;;;;0.00;0.00;;;;;17.09;49.61;100795.41;2081706;28;47676;-67
2022/09/26 00:20:07;;;;;;;;;0.50;0.50;;;;;17.07;49.86;100789.25;2077580;28;48248;-64
2022/09/26 00:21:11;;;;;;;;;0.00;0.00;;;;;17.08;49.61;100791.00;2080179;28;47567;-64
2022/09/26 00:22:11;;;;;;;;;0.50;0.50;;;;;17.06;49.90;100783.03;2079340;28;47472;-67
2022/09/26 00:23:12;;;;;;;;;0.00;0.00;;;;;17.06;50.08;100783.03;2079818;28;48338;-66
2022/09/26 00:24:13;;;;;;;;;1.00;1.00;;;;;17.06;49.93;100784.84;2079500;28;47409;-65
2022/09/26 00:25:13;;;;;;;;;1.50;1.50;;;;;17.04;49.95;100786.72;2079630;28;47848;-66
2022/09/26 00:26:16;;;;;;;;;1.33;0.67;;;;;17.03;49.87;100780.50;2079543;28;47583;-65
2022/09/26 00:27:18;;;;;;;;;0.75;0.75;;;;;17.03;49.91;100776.94;2078333;28;47727;-65
2022/09/26 00:28:18;;;;;;;;;0.00;0.00;;;;;17.03;49.85;100768.91;2081469;28;47160;-65
2022/09/26 00:29:19;;;;;;;;;1.33;1.33;;;;;17.04;50.16;100762.59;2079127;28;47410;-65
2022/09/26 00:30:19;;;;;;;;;0.67;0.67;;;;;17.04;49.82;100768.84;2079056;28;47899;-66
2022/09/26 00:31:25;;;;;;;;;0.00;0.00;;;;;17.04;50.09;100765.28;2077397;28;47916;-65
2022/09/26 00:32:26;;;;;;;;;1.00;1.00;;;;;17.03;50.14;100756.38;2079077;28;47573;-65
2022/09/26 00:33:26;;;;;;;;;1.33;1.33;;;;;17.05;49.94;100757.16;2079872;28;47263;-66
2022/09/26 00:34:26;;;;;;;;;0.67;0.67;;;;;17.05;49.83;100759.84;2071097;28;47376;-67
2022/09/26 00:35:27;;;;;;;;;1.00;1.00;;;;;17.05;49.76;100761.66;2071202;28;47745;-65
2022/09/26 00:36:28;;;;;;;;;1.00;1.00;;;;;17.04;49.95;100770.66;2079149;28;47606;-65
2022/09/26 00:37:28;;;;;;;;;2.25;1.25;;;;;17.02;49.87;100760.00;2080162;28;47250;-66
2022/09/26 00:38:29;;;;;;;;;1.00;1.00;;;;;17.02;49.95;100762.69;2078188;28;46590;-65
2022/09/26 00:39:29;;;;;;;;;0.00;0.00;;;;;17.02;49.72;100762.69;2079714;28;47621;-66
2022/09/26 00:40:31;;;;;;;;;0.33;0.33;;;;;17.02;49.92;100765.34;2068575;28;47081;-65
2022/09/26 00:41:31;;;;;;;;;1.50;1.50;;;;;17.03;49.63;100758.19;2076928;28;46677;-66
2022/09/26 00:42:32;;;;;;;;;1.67;0.00;;;;;17.03;49.91;100763.53;2080955;28;48053;-66
2022/09/26 00:43:35;;;;;;;;;1.33;1.33;;;;;17.02;49.85;100761.78;2084674;28;47788;-66
2022/09/26 00:44:41;;;;;;;;;1.00;0.00;;;;;17.01;49.90;100752.00;2084942;28;48030;-66
2022/09/26 00:45:42;;;;;;;;;0.75;0.75;;;;;16.99;49.71;100757.44;2080754;28;47517;-66
2022/09/26 00:46:47;;;;;;;;;0.33;0.33;;;;;16.99;49.88;100748.53;2084045;28;48148;-65
2022/09/26 00:48:04;;;;;;;;;0.75;0.75;;;;;16.96;49.98;100752.22;2079546;28;47842;-65
2022/09/26 00:49:23;;;;;;;;;0.50;0.50;;;;;16.95;49.69;100742.44;2080080;28;47393;-65
2022/09/26 00:50:40;;;;;;;;;0.75;0.25;;;;;16.93;49.80;100752.38;2079832;28;47700;-65
2022/09/26 00:51:45;;;;;;;;;1.75;1.75;;;;;16.92;49.77;100747.09;2079779;28;48091;-66
2022/09/26 00:52:59;;;;;;;;;1.50;1.50;;;;;16.89;49.81;100742.72;2081289;28;48012;-64
2022/09/26 00:54:01;;;;;;;;;0.75;0.00;;;;;16.89;49.95;100748.09;2078423;28;47834;-67
2022/09/26 00:55:05;;;;;;;;;2.25;0.25;;;;;16.89;50.19;100742.72;2076109;28;48014;-64
2022/09/26 00:56:11;;;;;;;;;0.00;0.00;;;;;16.88;50.13;100740.97;2082698;28;47711;-64
2022/09/26 00:57:18;;;;;;;;;0.25;0.25;;;;;16.88;50.05;100740.97;2081030;28;47416;-66
2022/09/26 00:58:23;;;;;;;;;1.25;0.00;;;;;16.88;50.01;100740.13;2074394;28;47674;-67
2022/09/26 00:59:28;;;;;;;;;0.25;0.25;;;;;16.86;49.81;100744.69;2082585;28;47522;-66
2022/09/26 01:00:29;;;;;;;;;2.25;2.25;;;;;16.85;49.69;100743.81;2082527;28;47544;-64
2022/09/26 01:01:30;;;;;;;;;1.25;0.75;;;;;16.85;49.76;100742.94;2081921;28;47850;-65
2022/09/26 01:02:31;;;;;;;;;0.00;0.00;;;;;16.84;50.19;100739.41;2079051;28;47614;-65
2022/09/26 01:03:31;;;;;;;;;0.00;0.00;;;;;16.83;49.83;100736.81;2076698;28;47406;-65
2022/09/26 01:04:36;;;;;;;;;2.00;0.00;;;;;16.81;50.18;100736.88;2083911;28;47330;-66
2022/09/26 01:05:37;;;;;;;;;0.00;0.00;;;;;16.80;49.56;100740.50;2084481;28;47261;-66
2022/09/26 01:06:38;;;;;;;;;2.00;2.00;;;;;16.79;50.03;100738.75;2079052;28;48045;-66
2022/09/26 01:07:39;;;;;;;;;0.00;0.00;;;;;16.79;50.30;100737.91;2079711;28;47792;-66
2022/09/26 01:08:45;;;;;;;;;2.00;2.00;;;;;16.79;50.44;100737.91;2083553;28;47009;-66
2022/09/26 01:09:46;;;;;;;;;0.50;0.50;;;;;16.77;50.20;100729.94;2072738;28;47534;-66
2022/09/26 01:10:47;;;;;;;;;0.00;0.00;;;;;16.77;49.96;100727.25;2084036;28;47484;-65
2022/09/26 01:11:47;;;;;;;;;0.00;0.00;;;;;16.76;50.26;100730.84;2079283;28;46827;-66
2022/09/26 01:12:48;;;;;;;;;0.00;0.00;;;;;16.75;50.02;100735.34;2079606;28;47776;-66
2022/09/26 01:13:51;;;;;;;;;0.33;0.00;;;;;16.73;49.77;100729.19;2079491;28;47409;-66
2022/09/26 01:14:53;;;;;;;;;1.50;1.50;;;;;16.72;50.35;100730.13;2077253;28;47813;-65
2022/09/26 01:15:54;;;;;;;;;1.00;1.00;;;;;16.72;50.04;100731.94;2079490;28;47479;-65
2022/09/26 01:16:55;;;;;;;;;1.00;1.00;;;;;16.71;50.48;100725.72;2079238;28;48360;-67
2022/09/26 01:17:55;;;;;;;;;0.00;0.00;;;;;16.71;49.97;100735.56;2079428;28;46834;-66
2022/09/26 01:18:57;;;;;;;;;1.00;1.00;;;;;16.71;50.17;100731.06;2079984;28;45666;-65
2022/09/26 01:20:19;;;;;;;;;0.50;0.50;;;;;16.71;50.11;100736.44;2079541;28;47449;-64
2022/09/26 01:21:33;;;;;;;;;1.50;1.50;;;;;16.71;50.01;100738.25;2077157;28;47703;-65
2022/09/26 01:23:25;;;;;;;;;2.00;1.00;;;;;16.71;49.87;100738.25;2077962;28;47664;-65
2022/09/26 01:24:31;;;;;;;;;1.25;0.75;;;;;16.72;50.26;100739.97;2071681;28;48503;-64
2022/09/26 01:25:46;;;;;;;;;1.00;0.00;;;;;16.72;50.11;100734.63;2080035;28;46103;-66
2022/09/26 01:27:18;;;;;;;;;2.50;1.50;;;;;16.73;50.20;100734.53;2079286;28;47902;-66
2022/09/26 01:28:27;;;;;;;;;1.25;1.25;;;;;16.71;50.17;100733.75;2077310;28;47606;-65
2022/09/26 01:29:56;;;;;;;;;0.50;0.50;;;;;16.70;50.29;100728.47;2079483;28;47953;-64
2022/09/26 01:31:21;;;;;;;;;0.00;0.00;;;;;16.67;50.20;100732.16;2076911;28;47841;-64
2022/09/26 01:32:49;;;;;;;;;0.75;0.75;;;;;16.65;49.71;100731.34;2079181;28;47557;-66
2022/09/26 01:34:15;;;;;;;;;0.00;0.00;;;;;16.60;50.04;100732.47;2073468;28;47694;-65
2022/09/26 01:35:21;;;;;;;;;1.00;1.00;;;;;16.57;50.21;100733.50;2071382;28;47414;-64
2022/09/26 01:36:33;;;;;;;;;0.00;0.00;;;;;16.54;50.34;100725.59;2077547;28;47875;-65
2022/09/26 01:37:48;;;;;;;;;0.25;0.25;;;;;16.54;50.24;100727.41;2079548;28;47501;-65
2022/09/26 01:39:17;;;;;;;;;1.50;1.50;;;;;16.53;50.35;100720.31;2079514;28;48006;-66
2022/09/26 01:40:34;;;;;;;;;0.00;0.00;;;;;16.51;50.00;100723.03;2079297;28;46508;-64
2022/09/26 01:42:02;;;;;;;;;0.00;0.00;;;;;16.51;50.40;100723.03;2071461;28;47866;-66
2022/09/26 01:43:33;;;;;;;;;0.50;0.50;;;;;16.51;50.20;100723.03;2078897;28;47502;-66
2022/09/26 01:44:38;;;;;;;;;1.00;1.00;;;;;16.50;50.41;100721.31;2073149;28;48128;-65
2022/09/26 01:45:53;;;;;;;;;1.50;0.75;;;;;16.48;50.35;100715.16;2077211;28;47381;-64
2022/09/26 01:47:12;;;;;;;;;0.00;0.00;;;;;16.46;49.91;100714.34;2079278;28;48093;-65
2022/09/26 01:48:18;;;;;;;;;1.25;0.50;;;;;16.45;50.05;100713.50;2079647;28;47481;-66
2022/09/26 01:49:31;;;;;;;;;0.00;0.00;;;;;16.43;50.41;100720.72;2079153;28;48511;-66
2022/09/26 01:50:41;;;;;;;;;2.00;2.00;;;;;16.44;50.32;100709.06;2079047;28;47291;-66
2022/09/26 01:51:51;;;;;;;;;0.25;0.25;;;;;16.44;50.00;100710.88;2075964;28;47669;-66
2022/09/26 01:52:57;;;;;;;;;0.25;0.00;;;;;16.43;50.19;100707.34;2076002;28;47589;-66
2022/09/26 01:54:04;;;;;;;;;0.75;0.75;;;;;16.44;50.09;100708.22;2077122;28;47426;-67
2022/09/26 01:55:16;;;;;;;;;0.75;0.00;;;;;16.45;50.04;100701.91;2073142;28;47239;-66
2022/09/26 01:56:22;;;;;;;;;2.00;1.00;;;;;16.43;49.90;100701.97;2079318;28;48044;-64
2022/09/26 01:57:37;;;;;;;;;0.00;0.00;;;;;16.43;49.98;100693.94;2079191;28;47607;-66
2022/09/26 01:59:05;;;;;;;;;0.75;0.75;;;;;16.42;49.38;100697.56;2080049;28;47686;-68
2022/09/26 02:00:11;;;;;;;;;1.50;1.50;;;;;16.42;49.80;100702.06;2074759;28;47991;-67
2022/09/26 02:01:15;;;;;;;;;0.00;0.00;;;;;16.41;49.72;100698.50;2080116;28;47464;-66
2022/09/26 02:02:26;;;;;;;;;1.00;1.00;;;;;16.41;49.68;100693.16;2079215;28;48136;-66
2022/09/26 02:03:35;;;;;;;;;0.50;0.00;;;;;16.40;49.66;100690.56;2070980;28;47698;-65
2022/09/26 02:04:40;;;;;;;;;0.25;0.25;;;;;16.40;49.54;100686.06;2071812;28;48126;-65
2022/09/26 02:05:52;;;;;;;;;0.25;0.25;;;;;16.40;49.74;100683.38;2078706;28;47925;-64
2022/09/26 02:06:58;;;;;;;;;0.00;0.00;;;;;16.40;49.97;100679.84;2079772;28;47803;-66
2022/09/26 02:08:18;;;;;;;;;1.25;0.25;;;;;16.40;49.54;100678.03;2070607;28;45862;-66
2022/09/26 02:09:51;;;;;;;;;1.00;1.00;;;;;16.39;49.72;100680.78;2071379;28;48347;-66
2022/09/26 02:10:59;;;;;;;;;1.00;1.00;;;;;16.36;49.28;100678.22;2059370;28;47781;-66
2022/09/26 02:12:14;;;;;;;;;1.50;1.00;;;;;16.33;49.72;100678.38;2050265;28;47279;-66
2022/09/26 02:13:28;;;;;;;;;1.75;1.00;;;;;16.31;49.31;100674.91;2056046;28;48009;-66
2022/09/26 02:14:34;;;;;;;;;0.00;0.00;;;;;16.28;49.99;100677.72;2068335;28;47976;-67
2022/09/26 02:15:37;;;;;;;;;0.00;0.00;;;;;16.28;49.88;100672.38;2052808;28;47543;-64
2022/09/26 02:16:49;;;;;;;;;3.25;0.25;;;;;16.28;49.81;100673.22;2053141;28;46930;-65
2022/09/26 02:17:59;;;;;;;;;1.00;1.00;;;;;16.26;49.77;100667.09;2054037;28;48291;-66
2022/09/26 02:19:27;;;;;;;;;1.00;1.00;;;;;16.23;49.88;100667.19;2055314;28;47336;-65
2022/09/26 02:20:31;;;;;;;;;1.25;1.25;;;;;16.22;49.60;100665.47;2031102;28;47963;-67
2022/09/26 02:21:31;;;;;;;;;0.25;0.25;;;;;16.22;49.48;100667.28;2029975;28;47813;-65
2022/09/26 02:22:33;;;;;;;;;0.00;0.00;;;;;16.23;49.48;100666.34;2042167;28;47570;-65
2022/09/26 02:23:34;;;;;;;;;1.00;1.00;;;;;16.21;49.96;100668.22;2044857;28;47687;-65
2022/09/26 02:24:34;;;;;;;;;0.33;0.33;;;;;16.21;49.50;100662.88;2038504;28;47685;-65
2022/09/26 02:25:36;;;;;;;;;1.00;1.00;;;;;16.20;49.46;100656.63;2038907;28;47369;-64
2022/09/26 02:26:36;;;;;;;;;3.00;1.25;;;;;16.18;49.48;100658.53;2040993;28;47325;-65
2022/09/26 02:27:37;;;;;;;;;0.00;0.00;;;;;16.18;49.99;100662.06;2039780;28;47833;-66
2022/09/26 02:28:38;;;;;;;;;0.00;0.00;;;;;16.17;49.88;100657.66;2037680;28;47673;-65
2022/09/26 02:29:39;;;;;;;;;1.33;1.33;;;;;16.14;49.61;100652.44;2038048;28;47378;-64
2022/09/26 02:30:43;;;;;;;;;0.25;0.25;;;;;16.13;49.92;100641.78;2037937;28;48155;-66
2022/09/26 02:31:49;;;;;;;;;1.00;1.00;;;;;16.11;49.81;100646.34;2035821;28;47553;-65
2022/09/26 02:32:50;;;;;;;;;1.00;1.00;;;;;16.09;49.86;100641.06;2036650;28;48210;-65
2022/09/26 02:33:52;;;;;;;;;0.33;0.33;;;;;16.10;50.21;100644.59;2037891;28;47564;-66
2022/09/26 02:34:53;;;;;;;;;0.00;0.00;;;;;16.10;50.08;100644.59;2037711;28;47647;-65
2022/09/26 02:35:54;;;;;;;;;0.00;0.00;;;;;16.10;50.06;100645.47;2038826;28;47885;-66
2022/09/26 02:36:56;;;;;;;;;1.00;1.00;;;;;16.11;50.16;100643.66;2038712;28;47856;-66
2022/09/26 02:37:58;;;;;;;;;0.00;0.00;;;;;16.11;50.20;100641.84;2030935;28;48068;-66
2022/09/26 02:38:59;;;;;;;;;0.00;0.00;;;;;16.11;50.07;100636.50;2032536;28;48136;-64
2022/09/26 02:40:00;;;;;;;;;0.00;0.00;;;;;16.11;50.09;100635.63;2037702;28;47747;-65
2022/09/26 02:41:28;;;;;;;;;0.25;0.25;;;;;16.12;49.75;100637.38;2041229;28;47269;-65
2022/09/26 02:42:46;;;;;;;;;0.50;0.50;;;;;16.10;50.13;100629.41;2034188;28;47132;-65
2022/09/26 02:44:18;;;;;;;;;0.50;0.25;;;;;16.11;50.28;100628.47;2036588;28;47285;-65
2022/09/26 02:45:46;;;;;;;;;1.00;0.25;;;;;16.11;50.12;100624.94;2024840;29;47865;-65
2022/09/26 02:47:11;;;;;;;;;0.75;0.75;;;;;16.09;50.57;100616.97;2019739;29;48111;-65
2022/09/26 02:48:29;;;;;;;;;0.75;0.75;;;;;16.08;50.45;100617.03;2020787;29;47290;-65
2022/09/26 02:49:54;;;;;;;;;1.00;1.00;;;;;16.06;50.23;100610.91;2017723;29;47690;-66
2022/09/26 02:51:07;;;;;;;;;1.75;1.25;;;;;16.05;50.50;100603.81;2019949;29;46048;-65
2022/09/26 02:52:10;;;;;;;;;0.50;0.50;;;;;16.04;50.32;100597.59;2019079;29;47697;-65
2022/09/26 02:53:30;;;;;;;;;1.75;0.75;;;;;16.05;50.40;100601.13;2018472;29;47208;-65
2022/09/26 02:54:58;;;;;;;;;1.00;1.00;;;;;16.04;50.35;100586.88;2015419;29;47486;-64
2022/09/26 02:56:08;;;;;;;;;0.75;0.75;;;;;16.03;50.18;100589.63;2009119;29;46590;-64
2022/09/26 02:57:39;;;;;;;;;1.00;1.00;;;;;16.03;50.83;100592.31;2009296;29;47758;-64
2022/09/26 02:58:51;;;;;;;;;1.75;1.75;;;;;16.03;50.51;100590.50;2050980;28;48001;-65
2022/09/26 02:59:55;;;;;;;;;1.00;1.00;;;;;16.04;50.58;100581.53;2048472;28;47369;-64
2022/09/26 03:01:02;;;;;;;;;0.00;0.00;;;;;16.04;50.97;100578.84;2049501;28;47634;-65
2022/09/26 03:02:17;;;;;;;;;0.75;0.75;;;;;16.07;50.99;100575.16;2037236;28;47151;-65
2022/09/26 03:03:24;;;;;;;;;1.00;1.00;;;;;16.09;50.35;100571.47;2038256;28;48010;-65
2022/09/26 03:04:39;;;;;;;;;0.00;0.00;;;;;16.11;50.81;100571.38;2037534;28;45748;-63
2022/09/26 03:05:44;;;;;;;;;0.00;0.00;;;;;16.10;50.16;100567.84;2040949;28;48001;-63
2022/09/26 03:06:52;;;;;;;;;0.00;0.00;;;;;16.07;50.32;100573.34;2042004;28;47617;-64
2022/09/26 03:07:57;;;;;;;;;0.75;0.75;;;;;16.05;50.86;100569.00;2043882;28;47698;-64
2022/09/26 03:08:59;;;;;;;;;0.75;0.75;;;;;16.04;50.98;100567.28;2046710;28;47283;-65
2022/09/26 03:10:03;;;;;;;;;0.00;0.00;;;;;16.02;50.58;100572.69;2045444;28;46717;-65
2022/09/26 03:11:09;;;;;;;;;0.50;0.00;;;;;16.02;51.03;100564.66;2043062;28;47629;-63
2022/09/26 03:12:11;;;;;;;;;2.00;0.00;;;;;16.01;50.68;100564.75;2047085;28;47640;-65
2022/09/26 03:13:15;;;;;;;;;0.50;0.25;;;;;15.98;51.25;100557.69;2047105;28;47625;-65
2022/09/26 03:14:19;;;;;;;;;0.50;0.50;;;;;15.98;51.12;100559.50;2047843;28;47475;-63
2022/09/26 03:15:21;;;;;;;;;0.25;0.25;;;;;16.00;51.29;100555.81;2051655;28;47715;-66
2022/09/26 03:16:27;;;;;;;;;0.00;0.00;;;;;15.98;51.04;100559.50;2054607;28;48026;-65
2022/09/26 03:17:30;;;;;;;;;1.50;1.50;;;;;16.00;51.30;100555.81;2051604;28;47606;-65
2022/09/26 03:18:38;;;;;;;;;0.75;0.75;;;;;16.01;51.15;100552.22;2053538;28;47801;-65
2022/09/26 03:19:45;;;;;;;;;0.00;0.00;;;;;16.02;50.95;100548.63;2047025;28;47680;-65
2022/09/26 03:20:47;;;;;;;;;0.00;0.00;;;;;16.02;51.07;100545.06;2050923;28;47478;-64
2022/09/26 03:21:47;;;;;;;;;1.50;1.00;;;;;16.01;51.29;100546.88;2053919;28;46555;-65
2022/09/26 03:22:48;;;;;;;;;0.00;0.00;;;;;16.00;51.18;100539.75;2076298;28;48489;-64
2022/09/26 03:23:49;;;;;;;;;1.33;1.33;;;;;15.99;51.59;100540.69;2087890;28;47471;-65
2022/09/26 03:24:50;;;;;;;;;2.25;0.25;;;;;15.98;51.44;100541.66;2088681;28;48041;-66
2022/09/26 03:26:03;;;;;;;;;1.33;0.00;;;;;15.97;51.44;100539.03;2080117;28;46911;-67
2022/09/26 03:27:04;;;;;;;;;0.75;0.75;;;;;15.93;51.49;100535.66;2081477;28;47699;-65
2022/09/26 03:28:05;;;;;;;;;0.00;0.00;;;;;15.93;51.48;100537.47;2080092;28;47350;-66
2022/09/26 03:29:06;;;;;;;;;0.33;0.33;;;;;15.93;51.62;100532.09;2080279;28;45582;-64
2022/09/26 03:30:07;;;;;;;;;0.33;0.00;;;;;15.90;51.31;100533.13;2080407;28;47457;-65
2022/09/26 03:31:07;;;;;;;;;0.00;0.00;;;;;15.89;51.58;100529.59;2074908;28;47175;-63
2022/09/26 03:32:08;;;;;;;;;1.00;1.00;;;;;15.90;51.72;100530.44;2055155;28;47343;-64
2022/09/26 03:33:09;;;;;;;;;0.75;0.75;;;;;15.92;51.44;100531.25;2064726;28;47914;-65
2022/09/26 03:34:09;;;;;;;;;0.00;0.00;;;;;15.91;51.67;100525.97;2064513;28;46476;-64
2022/09/26 03:35:10;;;;;;;;;0.00;0.00;;;;;15.92;51.71;100527.69;2062826;28;47380;-64
2022/09/26 03:36:10;;;;;;;;;1.00;1.00;;;;;15.90;51.59;100530.44;2062910;28;47687;-65
2022/09/26 03:37:11;;;;;;;;;0.33;0.00;;;;;15.87;51.80;100527.88;2046527;28;47430;-65
2022/09/26 03:38:11;;;;;;;;;0.00;0.00;;;;;15.88;51.80;100521.63;2046487;28;46531;-66
2022/09/26 03:39:11;;;;;;;;;0.00;0.00;;;;;15.89;51.81;100526.91;2062603;28;47374;-65
2022/09/26 03:40:12;;;;;;;;;0.00;0.00;;;;;15.92;51.90;100528.56;2063108;28;47482;-66
2022/09/26 03:41:13;;;;;;;;;0.75;0.25;;;;;15.93;51.50;100521.41;2064452;28;47563;-66
2022/09/26 03:42:15;;;;;;;;;0.00;0.00;;;;;15.94;51.72;100515.97;2062019;28;47490;-65
2022/09/26 03:43:15;;;;;;;;;0.25;0.25;;;;;15.94;51.39;100507.06;2055187;28;47318;-66
2022/09/26 03:44:16;;;;;;;;;0.00;0.00;;;;;15.94;51.59;100510.63;2062415;28;47549;-67
2022/09/26 03:45:17;;;;;;;;;1.33;1.33;;;;;15.93;51.29;100503.53;2064530;28;47625;-66
2022/09/26 03:46:17;;;;;;;;;0.25;0.25;;;;;15.94;51.75;100501.72;2056846;28;48722;-65
2022/09/26 03:47:18;;;;;;;;;1.33;1.33;;;;;15.95;51.39;100498.09;2059032;28;47124;-67
2022/09/26 03:48:18;;;;;;;;;0.00;0.00;;;;;15.93;51.21;100492.84;2054582;28;47266;-66
2022/09/26 03:49:19;;;;;;;;;0.00;0.00;;;;;15.90;51.59;100490.31;2038496;28;47389;-65
2022/09/26 03:50:19;;;;;;;;;0.00;0.00;;;;;15.92;51.52;100495.59;2040473;28;47393;-67
2022/09/26 03:51:20;;;;;;;;;0.00;0.00;;;;;15.92;51.49;100493.78;2063200;28;47300;-66
2022/09/26 03:52:21;;;;;;;;;1.00;0.33;;;;;15.94;51.54;100491.03;2064013;28;47338;-66
2022/09/26 03:53:21;;;;;;;;;0.25;0.25;;;;;15.91;51.75;100493.84;2056920;28;47198;-65
2022/09/26 03:54:22;;;;;;;;;0.00;0.00;;;;;15.88;51.01;100494.88;2059674;28;47501;-68
2022/09/26 03:55:23;;;;;;;;;0.00;0.00;;;;;15.85;51.61;100486.97;2056707;28;47404;-66
2022/09/26 03:56:25;;;;;;;;;0.00;0.00;;;;;15.86;51.55;100496.72;2071123;28;47449;-66
2022/09/26 03:57:26;;;;;;;;;1.00;1.00;;;;;15.84;52.01;100480.75;2070248;28;48073;-65
2022/09/26 03:58:26;;;;;;;;;0.00;0.00;;;;;15.86;51.63;100494.03;2062593;28;47850;-65
2022/09/26 03:59:26;;;;;;;;;0.00;0.00;;;;;15.87;51.81;100485.06;2060208;28;47488;-67
2022/09/26 04:00:27;;;;;;;;;0.00;0.00;;;;;15.87;51.48;100483.25;2061532;28;47412;-67
2022/09/26 04:01:27;;;;;;;;;0.00;0.00;;;;;15.90;51.35;100484.94;2061292;28;46181;-66
2022/09/26 04:02:27;;;;;;;;;0.00;0.00;;;;;15.90;51.81;100479.59;2056666;28;47424;-65
2022/09/26 04:03:31;;;;;;;;;0.33;0.33;;;;;15.93;51.68;100482.13;2058670;28;47673;-67
2022/09/26 04:04:32;;;;;;;;;0.75;0.25;;;;;15.94;51.78;100481.19;2053811;28;48112;-66
2022/09/26 04:05:32;;;;;;;;;0.00;0.00;;;;;15.95;51.78;100471.34;2056985;28;47811;-66
2022/09/26 04:06:32;;;;;;;;;0.00;0.00;;;;;15.95;51.28;100472.22;2054647;28;47328;-68
2022/09/26 04:07:33;;;;;;;;;1.00;1.00;;;;;15.96;51.65;100481.09;2063056;28;47261;-66
2022/09/26 04:08:36;;;;;;;;;0.33;0.33;;;;;15.95;51.25;100480.25;2066653;28;47699;-66
2022/09/26 04:09:36;;;;;;;;;1.00;1.00;;;;;15.96;51.13;100483.78;2063067;28;47165;-64
2022/09/26 04:10:37;;;;;;;;;1.33;0.33;;;;;15.96;51.50;100476.63;2072021;28;47607;-64
2022/09/26 04:11:38;;;;;;;;;1.33;1.33;;;;;15.97;51.09;100477.50;2072691;28;47718;-64
2022/09/26 04:12:39;;;;;;;;;1.00;0.00;;;;;15.95;51.02;100461.50;2071294;28;45733;-64
2022/09/26 04:13:39;;;;;;;;;0.00;0.00;;;;;15.95;51.31;100466.84;2073142;28;47677;-65
2022/09/26 04:14:42;;;;;;;;;0.00;0.00;;;;;15.94;51.67;100459.78;2072418;28;47053;-65
2022/09/26 04:15:42;;;;;;;;;0.00;0.00;;;;;15.94;50.96;100451.75;2072111;28;49212;-64
2022/09/26 04:16:43;;;;;;;;;0.33;0.33;;;;;15.93;51.14;100449.16;2074733;28;47461;-65
2022/09/26 04:17:43;;;;;;;;;0.00;0.00;;;;;15.93;51.33;100446.47;2070898;28;47883;-64
2022/09/26 04:18:43;;;;;;;;;0.33;0.33;;;;;15.92;50.98;100450.97;2076068;28;47760;-65
2022/09/26 04:19:44;;;;;;;;;0.67;0.00;;;;;15.89;51.01;100443.94;2073171;28;47271;-65
2022/09/26 04:20:44;;;;;;;;;1.33;1.33;;;;;15.88;51.23;100442.22;2070713;28;47651;-65
2022/09/26 04:21:45;;;;;;;;;0.33;0.33;;;;;15.89;51.42;100443.09;2052019;28;46076;-65
2022/09/26 04:22:45;;;;;;;;;0.33;0.33;;;;;15.88;51.54;100442.22;2046086;28;47408;-65
2022/09/26 04:23:46;;;;;;;;;0.33;0.00;;;;;15.91;51.73;100440.31;2070324;28;47388;-65
2022/09/26 04:24:46;;;;;;;;;1.00;0.00;;;;;15.92;51.21;100436.72;2070922;28;47409;-65
2022/09/26 04:25:46;;;;;;;;;0.67;0.67;;;;;15.92;51.65;100429.53;2070586;28;47501;-65
2022/09/26 04:26:47;;;;;;;;;1.00;1.00;;;;;15.93;51.44;100430.41;2074627;28;47757;-64
2022/09/26 04:27:47;;;;;;;;;1.33;0.67;;;;;15.91;51.31;100424.28;2056543;28;47264;-66
2022/09/26 04:28:49;;;;;;;;;0.00;0.00;;;;;15.93;51.52;100427.72;2051953;28;47313;-66
2022/09/26 04:29:50;;;;;;;;;0.00;0.00;;;;;15.93;51.54;100425.06;2070505;28;47460;-63
2022/09/26 04:30:50;;;;;;;;;0.33;0.00;;;;;15.92;51.31;100418.84;2065522;28;48358;-66
2022/09/26 04:31:51;;;;;;;;;3.67;2.00;;;;;15.93;51.11;100415.22;2062254;28;47824;-66
2022/09/26 04:32:51;;;;;;;;;0.00;0.00;;;;;15.92;51.42;100415.28;2055396;28;47596;-66
2022/09/26 04:33:53;;;;;;;;;0.00;0.00;;;;;15.91;51.23;100410.88;2079378;28;47388;-66
2022/09/26 04:34:54;;;;;;;;;0.00;0.00;;;;;15.91;51.75;100405.53;2079826;28;47847;-65
2022/09/26 04:35:54;;;;;;;;;0.33;0.33;;;;;15.92;51.38;100412.63;2070838;28;48008;-65
2022/09/26 04:36:56;;;;;;;;;0.00;0.00;;;;;15.89;51.34;100409.16;2070722;28;47242;-65
2022/09/26 04:37:56;;;;;;;;;0.25;0.25;;;;;15.88;51.39;100407.44;2079590;28;47828;-65
2022/09/26 04:38:59;;;;;;;;;0.00;0.00;;;;;15.87;51.51;100402.97;2079840;28;48207;-66
2022/09/26 04:39:59;;;;;;;;;1.50;0.75;;;;;15.88;51.33;100406.56;2071750;28;47574;-65
2022/09/26 04:41:10;;;;;;;;;0.33;0.33;;;;;15.88;51.49;100402.06;2067881;28;47508;-65
2022/09/26 04:42:10;;;;;;;;;0.25;0.00;;;;;15.91;51.16;100410.88;2072330;28;47180;-65
2022/09/26 04:43:11;;;;;;;;;2.00;1.00;;;;;15.92;51.24;100399.25;2079864;28;47578;-66
2022/09/26 04:44:12;;;;;;;;;0.00;0.00;;;;;15.92;51.47;100400.09;2077219;28;47902;-65
2022/09/26 04:45:12;;;;;;;;;0.00;0.00;;;;;15.94;51.13;100394.69;2077135;28;47776;-66
2022/09/26 04:46:17;;;;;;;;;0.00;0.00;;;;;15.93;51.19;100390.28;2073906;28;47308;-66
2022/09/26 04:47:17;;;;;;;;;0.00;0.00;;;;;15.90;51.63;100399.31;2079332;28;47169;-66
2022/09/26 04:48:17;;;;;;;;;0.00;0.00;;;;;15.89;50.98;100385.06;2079896;28;47899;-66
2022/09/26 04:49:18;;;;;;;;;1.00;1.00;;;;;15.87;50.84;100372.69;2079734;28;47334;-66
2022/09/26 04:50:18;;;;;;;;;0.67;0.33;;;;;15.86;51.50;100378.97;2079646;28;47030;-66
2022/09/26 04:51:20;;;;;;;;;0.67;0.33;;;;;15.86;51.11;100377.16;2079067;28;48264;-65
2022/09/26 04:52:20;;;;;;;;;0.00;0.00;;;;;15.87;51.50;100370.00;2079179;28;47939;-67
2022/09/26 04:53:22;;;;;;;;;1.33;1.33;;;;;15.87;51.54;100370.00;2074483;28;45770;-67
2022/09/26 04:54:22;;;;;;;;;1.00;1.00;;;;;15.88;51.66;100378.00;2078912;28;47597;-65
2022/09/26 04:55:23;;;;;;;;;0.00;0.00;;;;;15.92;50.88;100381.38;2079305;28;48150;-65
2022/09/26 04:56:27;;;;;;;;;0.00;0.00;;;;;15.95;51.30;100380.34;2079553;28;46391;-67
2022/09/26 04:57:27;;;;;;;;;2.00;0.50;;;;;15.94;50.96;100384.84;2079506;28;47692;-66
2022/09/26 04:58:28;;;;;;;;;0.67;0.00;;;;;15.93;51.00;100380.44;2080199;28;47583;-67
2022/09/26 04:59:28;;;;;;;;;0.50;0.50;;;;;15.94;51.13;100378.63;2080020;28;47621;-67
2022/09/26 05:00:29;;;;;;;;;2.00;0.00;;;;;15.92;50.95;100378.69;2078362;28;47809;-65
2022/09/26 05:01:29;;;;;;;;;0.00;0.00;;;;;15.89;51.20;100381.53;2072898;28;47522;-67
2022/09/26 05:02:29;;;;;;;;;0.33;0.33;;;;;15.88;51.48;100374.44;2080227;28;47211;-66
2022/09/26 05:03:30;;;;;;;;;1.33;0.67;;;;;15.85;51.33;100377.25;2083021;28;48201;-66